createdAt,value
2022-11-09T00:02:38.265Z,7.60
2022-11-09T00:07:42.934Z,7.60
2022-11-09T00:12:50.084Z,7.60
2022-11-09T00:17:57.489Z,7.60
2022-11-09T00:23:04.869Z,7.60
2022-11-09T00:28:12.321Z,7.15
2022-11-09T00:33:22.266Z,7.15
2022-11-09T00:38:29.453Z,7.60
2022-11-09T00:43:36.690Z,6.73
2022-11-09T00:48:43.970Z,6.73
2022-11-09T00:53:51.124Z,6.73
2022-11-09T00:59:00.780Z,6.73
2022-11-09T01:04:08.092Z,6.73
2022-11-09T01:09:15.242Z,6.73
2022-11-09T01:14:22.567Z,6.73
2022-11-09T01:19:29.824Z,7.16
2022-11-09T01:24:37.254Z,6.29
2022-11-09T01:29:44.589Z,6.29
2022-11-09T01:34:51.881Z,6.29
2022-11-09T01:39:59.197Z,6.29
2022-11-09T01:45:06.578Z,6.29
2022-11-09T01:50:13.946Z,6.29
2022-11-09T01:55:21.175Z,6.29
2022-11-09T02:00:28.610Z,6.29
2022-11-09T02:05:37.434Z,6.29
2022-11-09T02:10:44.555Z,6.29
2022-11-09T02:15:51.769Z,6.29
2022-11-09T02:20:59.120Z,6.29
2022-11-09T02:26:06.371Z,6.71
2022-11-09T02:31:13.646Z,5.83
2022-11-09T02:36:20.849Z,5.83
2022-11-09T02:41:28.017Z,5.83
2022-11-09T02:46:35.236Z,5.83
2022-11-09T02:51:42.449Z,5.83
2022-11-09T02:56:49.644Z,5.83
2022-11-09T03:01:56.942Z,5.83
2022-11-09T03:07:04.274Z,5.83
2022-11-09T03:12:11.382Z,5.83
2022-11-09T03:17:18.551Z,5.83
2022-11-09T03:22:25.895Z,5.83
2022-11-09T03:27:33.109Z,5.83
2022-11-09T03:32:40.483Z,5.83
2022-11-09T03:37:47.753Z,6.23
2022-11-09T03:42:54.979Z,5.83
2022-11-09T03:48:02.226Z,5.83
2022-11-09T03:53:09.534Z,5.83
2022-11-09T03:58:16.758Z,5.83
2022-11-09T04:03:24.155Z,5.83
2022-11-09T04:08:31.353Z,5.83
2022-11-09T04:13:38.530Z,5.83
2022-11-09T04:18:45.704Z,5.83
2022-11-09T04:23:52.967Z,5.83
2022-11-09T04:29:00.156Z,5.83
2022-11-09T04:34:07.345Z,5.83
2022-11-09T04:39:14.608Z,5.83
2022-11-09T04:44:21.792Z,5.83
2022-11-09T04:49:28.970Z,5.83
2022-11-09T04:54:36.206Z,5.83
2022-11-09T04:59:43.321Z,5.35
2022-11-09T05:04:50.556Z,5.35
2022-11-09T05:09:57.803Z,5.35
2022-11-09T05:15:04.976Z,5.35
2022-11-09T05:20:12.184Z,5.35
2022-11-09T05:25:19.411Z,5.35
2022-11-09T05:30:26.571Z,5.35
2022-11-09T05:35:33.765Z,5.35
2022-11-09T05:40:41.147Z,5.35
2022-11-09T05:45:48.193Z,5.35
2022-11-09T05:50:55.418Z,5.35
2022-11-09T05:56:02.653Z,5.35
2022-11-09T06:01:09.876Z,5.35
2022-11-09T06:06:17.138Z,5.35
2022-11-09T06:11:24.729Z,5.35
2022-11-09T06:16:31.542Z,5.35
2022-11-09T06:21:38.738Z,5.35
2022-11-09T06:26:45.960Z,5.35
2022-11-09T06:31:53.144Z,5.35
2022-11-09T06:37:00.361Z,5.35
2022-11-09T06:42:07.630Z,5.35
2022-11-09T06:47:16.282Z,5.35
2022-11-09T06:52:23.472Z,5.35
2022-11-09T06:57:30.612Z,5.35
2022-11-09T07:02:37.809Z,5.35
2022-11-09T07:07:44.929Z,5.35
2022-11-09T07:12:52.076Z,5.35
2022-11-09T07:17:59.257Z,5.35
2022-11-09T07:23:06.408Z,5.35
2022-11-09T07:28:14.768Z,5.35
2022-11-09T07:33:22.197Z,5.35
2022-11-09T07:38:29.111Z,5.35
2022-11-09T07:43:36.326Z,5.35
2022-11-09T07:48:43.567Z,5.35
2022-11-09T07:53:50.804Z,5.35
2022-11-09T07:58:58.090Z,5.35
2022-11-09T08:04:05.223Z,4.94
2022-11-09T08:09:12.482Z,4.94
2022-11-09T08:14:19.741Z,4.94
2022-11-09T08:19:26.973Z,4.94
2022-11-09T08:24:34.304Z,4.94
2022-11-09T08:29:41.599Z,4.94
2022-11-09T08:34:48.828Z,4.94
2022-11-09T08:39:56.053Z,4.94
2022-11-09T08:45:03.325Z,4.94
2022-11-09T08:50:12.622Z,4.94
2022-11-09T08:55:19.811Z,4.94
2022-11-09T09:00:27.155Z,5.35
2022-11-09T09:05:34.262Z,5.35
2022-11-09T09:10:41.555Z,5.35
2022-11-09T09:15:48.777Z,5.35
2022-11-09T09:20:58.263Z,5.35
2022-11-09T09:26:05.404Z,5.35
2022-11-09T09:31:18.110Z,5.35
2022-11-09T09:36:19.922Z,5.35
2022-11-09T09:41:29.888Z,4.94
2022-11-09T09:46:37.114Z,4.94
2022-11-09T09:51:44.359Z,4.94
2022-11-09T09:56:51.607Z,4.94
2022-11-09T10:01:59.467Z,4.94
2022-11-09T10:07:09.109Z,4.94
2022-11-09T10:12:16.237Z,4.94
2022-11-09T10:17:23.570Z,4.94
2022-11-09T10:22:30.836Z,4.94
2022-11-09T10:27:38.072Z,4.94
2022-11-09T10:32:45.326Z,4.94
2022-11-09T10:37:52.473Z,4.94
2022-11-09T10:42:59.732Z,4.94
2022-11-09T10:48:07.153Z,4.94
2022-11-09T10:53:14.720Z,4.94
2022-11-09T10:58:22.274Z,4.94
2022-11-09T11:03:29.151Z,4.94
2022-11-09T11:08:36.372Z,4.94
2022-11-09T11:13:43.603Z,4.94
2022-11-09T11:18:50.895Z,4.94
2022-11-09T11:23:58.090Z,4.94
2022-11-09T11:29:05.367Z,4.94
2022-11-09T11:34:18.982Z,4.94
2022-11-09T11:39:19.912Z,4.94
2022-11-09T11:44:27.118Z,4.94
2022-11-09T11:49:34.426Z,4.94
2022-11-09T11:54:41.665Z,4.94
2022-11-09T11:59:49.950Z,4.94
2022-11-09T12:04:57.295Z,4.94
2022-11-09T12:10:04.557Z,4.94
2022-11-09T12:15:11.792Z,4.94
2022-11-09T12:20:19.101Z,4.94
2022-11-09T12:25:26.297Z,4.94
2022-11-09T12:30:33.527Z,5.35
2022-11-09T12:35:40.906Z,4.94
2022-11-09T12:40:48.801Z,4.94
2022-11-09T12:45:56.017Z,4.94
2022-11-09T12:51:03.222Z,4.94
2022-11-09T12:56:10.485Z,4.94
2022-11-09T13:01:17.773Z,4.94
2022-11-09T13:06:25.098Z,4.94
2022-11-09T13:11:32.280Z,4.94
2022-11-09T13:16:39.567Z,4.94
2022-11-09T13:21:46.823Z,4.94
2022-11-09T13:26:54.053Z,4.94
2022-11-09T13:32:01.273Z,5.35
2022-11-09T13:37:08.552Z,5.35
2022-11-09T13:42:15.765Z,5.35
2022-11-09T13:47:22.953Z,5.35
2022-11-09T13:52:30.206Z,5.35
2022-11-09T13:57:37.388Z,5.35
2022-11-09T14:02:44.603Z,5.35
2022-11-09T14:07:51.843Z,5.35
2022-11-09T14:12:59.017Z,5.35
2022-11-09T14:18:09.208Z,5.35
2022-11-09T14:23:16.533Z,5.35
2022-11-09T14:28:23.741Z,5.35
2022-11-09T14:33:30.977Z,5.35
2022-11-09T14:38:38.260Z,5.35
2022-11-09T14:43:45.523Z,5.35
2022-11-09T14:48:52.778Z,5.35
2022-11-09T14:54:00.081Z,5.35
2022-11-09T14:59:07.239Z,5.35
2022-11-09T15:04:14.449Z,5.35
2022-11-09T15:09:21.854Z,5.35
2022-11-09T15:14:30.049Z,5.35
2022-11-09T15:19:37.278Z,5.35
2022-11-09T15:24:46.289Z,5.35
2022-11-09T15:29:51.801Z,5.35
2022-11-09T15:34:59.051Z,5.35
2022-11-09T15:40:06.439Z,5.35
2022-11-09T15:45:13.563Z,5.35
2022-11-09T15:50:20.845Z,5.35
2022-11-09T15:55:28.112Z,5.35
2022-11-09T16:00:35.430Z,5.35
2022-11-09T16:05:42.578Z,5.35
2022-11-09T16:10:49.783Z,5.35
2022-11-09T16:15:57.043Z,5.35
2022-11-09T16:21:04.284Z,5.35
2022-11-09T16:26:11.622Z,5.35
2022-11-09T16:31:25.294Z,5.35
2022-11-09T16:36:26.204Z,5.74
2022-11-09T16:41:33.450Z,5.74
2022-11-09T16:46:40.956Z,5.74
2022-11-09T16:51:48.679Z,5.74
2022-11-09T16:56:56.228Z,5.74
2022-11-09T17:02:03.660Z,5.74
2022-11-09T17:07:10.784Z,5.74
2022-11-09T17:12:18.074Z,5.74
2022-11-09T17:17:25.216Z,5.74
2022-11-09T17:22:32.466Z,5.74
2022-11-09T17:27:39.746Z,5.74
2022-11-09T17:32:47.344Z,5.74
2022-11-09T17:37:54.894Z,5.74
2022-11-09T17:43:02.495Z,5.74
2022-11-09T17:48:09.902Z,5.74
2022-11-09T17:53:17.392Z,5.74
2022-11-09T17:58:24.786Z,5.74
2022-11-09T18:03:32.309Z,5.74
2022-11-09T18:08:39.634Z,5.74
2022-11-09T18:13:46.886Z,5.74
2022-11-09T18:18:54.440Z,5.74
2022-11-09T18:24:02.043Z,6.63
2022-11-09T18:29:09.351Z,6.63
2022-11-09T18:34:17.150Z,6.63
2022-11-09T18:39:24.888Z,6.23
2022-11-09T18:44:32.544Z,6.63
2022-11-09T18:49:40.125Z,6.23
2022-11-09T18:54:47.577Z,6.23
2022-11-09T18:59:55.066Z,6.23
2022-11-09T19:05:03.251Z,6.23
2022-11-09T19:10:11.239Z,6.23
2022-11-09T19:15:18.826Z,6.23
2022-11-09T19:20:26.430Z,6.71
2022-11-09T19:25:34.143Z,6.71
2022-11-09T19:30:41.772Z,7.12
2022-11-09T19:36:15.072Z,6.71
2022-11-09T19:40:59.439Z,6.71
2022-11-09T19:46:07.178Z,6.71
2022-11-09T19:51:14.764Z,6.71
2022-11-09T19:56:22.900Z,6.71
2022-11-09T20:01:30.250Z,6.71
2022-11-09T20:06:37.636Z,6.71
2022-11-09T20:11:45.425Z,6.71
2022-11-09T20:16:52.850Z,7.12
2022-11-09T20:22:01.549Z,7.12
2022-11-09T20:27:08.896Z,7.52
2022-11-09T20:32:23.020Z,7.52
2022-11-09T20:37:30.666Z,7.52
2022-11-09T20:42:38.280Z,7.12
2022-11-09T20:48:05.180Z,7.52
2022-11-09T20:52:53.512Z,8.41
2022-11-09T20:58:03.194Z,8.41
2022-11-09T21:03:10.718Z,8.00
2022-11-09T21:08:19.251Z,8.00
2022-11-09T21:13:26.285Z,8.00
2022-11-09T21:18:33.685Z,8.00
2022-11-09T21:23:42.173Z,8.00
2022-11-09T21:28:49.511Z,8.00
2022-11-09T21:33:57.293Z,8.00
2022-11-09T21:39:04.669Z,8.00
2022-11-09T21:44:11.905Z,8.00
2022-11-09T21:49:19.143Z,8.00
2022-11-09T21:54:26.351Z,8.00
2022-11-09T21:59:33.594Z,8.00
2022-11-09T22:04:40.863Z,8.41
2022-11-09T22:10:08.770Z,8.00
2022-11-09T22:14:55.311Z,8.00
2022-11-09T22:20:02.564Z,8.00
2022-11-09T22:25:09.773Z,8.00
2022-11-09T22:30:16.979Z,8.00
2022-11-09T22:35:24.205Z,8.00
2022-11-09T22:40:31.376Z,8.00
2022-11-09T22:45:38.577Z,8.00
2022-11-09T22:50:45.819Z,8.00
2022-11-09T22:55:53.039Z,8.00
2022-11-09T23:01:00.277Z,8.00
2022-11-09T23:06:07.538Z,8.00
2022-11-09T23:11:14.728Z,8.00
2022-11-09T23:16:21.963Z,8.00
2022-11-09T23:21:29.223Z,8.00
2022-11-09T23:26:36.404Z,8.00
2022-11-09T23:31:43.628Z,8.00
2022-11-09T23:36:50.896Z,8.00
2022-11-09T23:41:58.133Z,8.41
2022-11-09T23:47:05.362Z,8.41
2022-11-09T23:52:12.674Z,8.41
2022-11-09T23:57:19.850Z,8.00
